createdAt,value
2019-05-30T00:01:04.253Z,11.40
2019-05-30T00:03:56.043Z,11.43
2019-05-30T00:06:44.113Z,12.10
2019-05-30T00:09:32.347Z,12.00
2019-05-30T00:12:20.810Z,12.67
2019-05-30T00:15:27.813Z,13.73
2019-05-30T00:18:16.368Z,12.37
2019-05-30T00:21:05.837Z,12.33
2019-05-30T00:24:04.075Z,12.43
2019-05-30T00:27:09.872Z,13.00
2019-05-30T00:29:59.221Z,12.67
2019-05-30T00:33:09.157Z,13.77
2019-05-30T00:35:58.070Z,13.93
2019-05-30T00:38:52.460Z,14.53
2019-05-30T00:41:50.931Z,15.00
2019-05-30T00:44:39.089Z,15.30
2019-05-30T00:47:27.295Z,14.93
2019-05-30T00:50:15.791Z,14.03
2019-05-30T00:53:12.560Z,14.37
2019-05-30T00:56:01.521Z,14.40
2019-05-30T00:59:16.704Z,15.37
2019-05-30T01:02:05.364Z,14.33
2019-05-30T01:05:18.638Z,14.20
2019-05-30T01:08:07.401Z,15.50
2019-05-30T01:11:10.874Z,15.60
2019-05-30T01:14:01.054Z,15.87
2019-05-30T01:16:48.976Z,14.63
2019-05-30T01:19:37.708Z,14.23
2019-05-30T01:22:30.566Z,13.87
2019-05-30T01:25:18.903Z,13.57
2019-05-30T01:28:07.840Z,14.80
2019-05-30T01:31:14.404Z,16.53
2019-05-30T01:37:15.892Z,14.17
2019-05-30T01:40:06.357Z,13.60
2019-05-30T01:43:12.188Z,12.90
2019-05-30T01:46:02.039Z,13.57
2019-05-30T01:49:00.567Z,14.40
2019-05-30T01:51:46.131Z,14.33
2019-05-30T01:54:34.694Z,13.63
2019-05-30T01:57:23.518Z,14.87
2019-05-30T02:00:20.671Z,14.83
2019-05-30T02:03:36.902Z,13.70
2019-05-30T02:06:24.702Z,13.63
2019-05-30T02:09:37.653Z,14.17
2019-05-30T02:12:23.034Z,15.43
2019-05-30T02:15:21.436Z,14.87
2019-05-30T02:18:10.211Z,15.07
2019-05-30T02:21:06.222Z,15.23
2019-05-30T02:23:55.026Z,14.43
2019-05-30T02:26:44.928Z,13.73
2019-05-30T02:29:33.616Z,13.97
2019-05-30T02:32:21.852Z,13.80
2019-05-30T02:35:12.876Z,13.97
2019-05-30T02:38:05.101Z,13.97
2019-05-30T02:41:14.052Z,14.67
2019-05-30T02:44:12.624Z,13.73
2019-05-30T02:47:22.422Z,14.20
2019-05-30T02:50:14.364Z,14.07
2019-05-30T02:53:10.537Z,14.53
2019-05-30T02:55:57.269Z,13.77
2019-05-30T02:58:47.973Z,15.57
2019-05-30T03:01:35.972Z,14.30
2019-05-30T03:04:41.539Z,14.60
2019-05-30T03:07:32.269Z,15.13
2019-05-30T03:10:20.573Z,14.33
2019-05-30T03:13:11.212Z,14.27
2019-05-30T03:15:59.319Z,14.00
2019-05-30T03:18:47.363Z,13.80
2019-05-30T03:21:35.678Z,14.13
2019-05-30T03:24:24.198Z,14.13
2019-05-30T03:27:14.160Z,14.83
2019-05-30T03:30:05.213Z,13.13
2019-05-30T03:33:19.393Z,13.17
2019-05-30T03:36:00.813Z,12.40
2019-05-30T03:38:59.753Z,12.30
2019-05-30T03:41:38.497Z,12.97
2019-05-30T03:44:26.791Z,12.07
2019-05-30T03:47:17.771Z,12.73
2019-05-30T03:50:08.998Z,12.97
2019-05-30T03:53:01.488Z,11.50
2019-05-30T03:59:19.370Z,11.47
2019-05-30T04:03:09.390Z,11.70
2019-05-30T04:06:12.401Z,11.60
2019-05-30T04:09:11.734Z,11.40
2019-05-30T04:12:23.300Z,10.37
2019-05-30T04:15:18.802Z,12.43
2019-05-30T04:18:10.140Z,11.07
2019-05-30T04:21:10.805Z,10.77
2019-05-30T04:24:02.423Z,10.83
2019-05-30T04:27:16.114Z,11.03
2019-05-30T04:30:05.587Z,10.63
2019-05-30T04:33:15.706Z,11.93
2019-05-30T04:35:46.218Z,11.40
2019-05-30T04:38:35.693Z,11.37
2019-05-30T04:41:23.911Z,11.90
2019-05-30T04:44:13.848Z,11.43
2019-05-30T04:47:01.491Z,11.27
2019-05-30T04:49:50.501Z,12.20
2019-05-30T04:52:39.123Z,13.20
2019-05-30T04:55:27.865Z,11.90
2019-05-30T04:58:18.015Z,11.60
2019-05-30T05:01:15.472Z,12.33
2019-05-30T05:04:04.790Z,11.83
2019-05-30T05:07:01.482Z,10.80
2019-05-30T05:09:50.744Z,11.27
2019-05-30T05:12:40.526Z,10.37
2019-05-30T05:15:29.216Z,10.33
2019-05-30T05:18:19.046Z,10.37
2019-05-30T05:21:23.064Z,9.67
2019-05-30T05:24:01.935Z,10.77
2019-05-30T05:27:26.016Z,11.00
2019-05-30T05:30:06.711Z,10.93
2019-05-30T05:32:59.422Z,11.13
2019-05-30T05:35:47.791Z,11.20
2019-05-30T05:38:36.286Z,10.37
2019-05-30T05:41:24.783Z,10.90
2019-05-30T05:44:16.133Z,10.63
2019-05-30T05:47:04.306Z,11.90
2019-05-30T05:49:52.824Z,11.47
2019-05-30T05:52:41.105Z,11.67
2019-05-30T05:55:29.780Z,11.90
2019-05-30T05:58:19.100Z,11.80
2019-05-30T06:01:47.876Z,11.70
2019-05-30T06:04:17.188Z,12.20
2019-05-30T06:07:20.310Z,11.37
2019-05-30T06:10:08.885Z,11.93
2019-05-30T06:13:05.622Z,12.53
2019-05-30T06:15:54.530Z,13.33
2019-05-30T06:18:43.074Z,12.97
2019-05-30T06:21:31.276Z,13.90
2019-05-30T06:24:19.671Z,12.87
2019-05-30T06:27:11.690Z,13.90
2019-05-30T06:30:00.066Z,14.30
2019-05-30T06:32:56.018Z,13.80
2019-05-30T06:35:47.437Z,14.00
2019-05-30T06:38:36.075Z,13.77
2019-05-30T06:41:35.377Z,14.27
2019-05-30T06:44:23.953Z,12.40
2019-05-30T06:47:12.170Z,12.63
2019-05-30T06:50:00.074Z,12.90
2019-05-30T06:52:48.860Z,11.73
2019-05-30T06:55:36.957Z,11.70
2019-05-30T06:58:41.449Z,12.23
2019-05-30T07:01:29.748Z,12.10
2019-05-30T07:04:14.292Z,12.30
2019-05-30T07:07:05.986Z,12.03
2019-05-30T07:09:54.497Z,12.10
2019-05-30T07:12:42.624Z,11.90
2019-05-30T07:15:31.428Z,13.10
2019-05-30T07:18:23.494Z,12.57
2019-05-30T07:21:23.567Z,12.37
2019-05-30T07:24:15.593Z,12.30
2019-05-30T07:27:10.052Z,11.87
2019-05-30T07:30:00.050Z,12.50
2019-05-30T07:32:47.776Z,12.83
2019-05-30T07:35:35.789Z,13.07
2019-05-30T07:38:24.291Z,13.10
2019-05-30T07:41:12.161Z,12.93
2019-05-30T07:44:21.867Z,12.57
2019-05-30T07:47:09.605Z,11.57
2019-05-30T07:49:57.734Z,11.43
2019-05-30T07:52:45.887Z,11.93
2019-05-30T07:55:35.112Z,11.67
2019-05-30T07:58:23.254Z,11.07
2019-05-30T08:01:11.365Z,11.63
2019-05-30T08:04:13.726Z,11.30
2019-05-30T08:07:23.347Z,11.23
2019-05-30T08:10:11.775Z,11.30
2019-05-30T08:13:49.751Z,11.70
2019-05-30T08:16:38.247Z,11.37
2019-05-30T08:19:29.721Z,11.03
2019-05-30T08:22:38.202Z,11.03
2019-05-30T08:25:26.237Z,11.00
2019-05-30T08:28:21.240Z,10.47
2019-05-30T08:31:28.657Z,11.53
2019-05-30T08:34:17.016Z,10.50
2019-05-30T08:37:08.190Z,10.37
2019-05-30T08:39:56.066Z,10.10
2019-05-30T08:42:44.802Z,10.03
2019-05-30T08:45:37.640Z,8.47
2019-05-30T08:48:24.675Z,9.20
2019-05-30T08:51:14.672Z,8.07
2019-05-30T08:54:05.373Z,8.10
2019-05-30T08:57:06.854Z,7.20
2019-05-30T08:59:54.642Z,6.00
2019-05-30T09:02:42.970Z,5.73
2019-05-30T09:05:36.176Z,5.90
2019-05-30T09:08:21.467Z,3.93
2019-05-30T09:11:09.189Z,4.63
2019-05-30T09:13:58.318Z,3.90
2019-05-30T09:17:08.391Z,3.63
2019-05-30T09:19:47.946Z,3.40
2019-05-30T09:22:37.963Z,2.70
2019-05-30T09:25:27.505Z,2.40
2019-05-30T09:28:15.898Z,2.80
2019-05-30T09:34:44.888Z,3.30
2019-05-30T09:37:28.672Z,2.90
2019-05-30T09:40:17.111Z,2.70
2019-05-30T09:43:08.339Z,2.50
2019-05-30T09:45:56.090Z,2.73
2019-05-30T09:48:44.837Z,2.40
2019-05-30T09:51:33.214Z,2.20
2019-05-30T09:54:21.369Z,2.10
2019-05-30T09:57:09.263Z,2.70
2019-05-30T09:59:57.755Z,2.50
2019-05-30T10:02:46.585Z,2.10
2019-05-30T10:05:35.028Z,1.60
2019-05-30T10:08:23.135Z,1.57
2019-05-30T10:14:06.558Z,1.90
2019-05-30T10:17:22.809Z,1.70
2019-05-30T10:20:11.313Z,1.53
2019-05-30T10:23:09.712Z,1.47
2019-05-30T10:25:57.848Z,1.60
2019-05-30T10:28:47.705Z,1.20
2019-05-30T10:34:34.949Z,1.17
2019-05-30T10:37:27.530Z,1.33
2019-05-30T10:40:16.778Z,1.20
2019-05-30T10:43:11.816Z,1.20
2019-05-30T10:46:01.221Z,1.20
2019-05-30T10:48:52.818Z,1.30
2019-05-30T10:51:59.643Z,1.30
2019-05-30T10:54:47.980Z,1.30
2019-05-30T10:57:35.743Z,1.63
2019-05-30T11:00:32.484Z,1.57
2019-05-30T11:03:38.366Z,1.33
2019-05-30T11:06:39.617Z,1.37
2019-05-30T11:09:35.519Z,1.43
2019-05-30T11:13:40.172Z,1.60
2019-05-30T11:15:43.222Z,1.50
2019-05-30T11:18:31.334Z,1.60
2019-05-30T11:21:30.753Z,1.70
2019-05-30T11:27:28.820Z,1.30
2019-05-30T11:30:17.570Z,1.47
2019-05-30T11:33:08.724Z,1.40
2019-05-30T11:35:57.152Z,1.50
2019-05-30T11:38:45.518Z,1.30
2019-05-30T11:41:33.587Z,1.27
2019-05-30T11:44:36.051Z,1.40
2019-05-30T11:47:23.981Z,1.33
2019-05-30T11:50:13.059Z,1.40
2019-05-30T11:53:08.666Z,1.50
2019-05-30T11:55:56.593Z,1.67
2019-05-30T11:58:44.873Z,1.50
2019-05-30T12:01:32.923Z,1.30
2019-05-30T12:04:36.598Z,1.33
2019-05-30T12:07:35.931Z,1.50
2019-05-30T12:10:15.737Z,1.70
2019-05-30T12:16:12.445Z,1.60
2019-05-30T12:19:10.206Z,1.50
2019-05-30T12:22:08.621Z,1.90
2019-05-30T12:25:22.713Z,1.50
2019-05-30T12:28:10.596Z,1.90
2019-05-30T12:31:06.435Z,1.83
2019-05-30T12:33:54.243Z,1.70
2019-05-30T12:36:42.463Z,1.90
2019-05-30T12:39:32.512Z,1.50
2019-05-30T12:42:20.552Z,1.50
2019-05-30T12:45:16.252Z,1.60
2019-05-30T12:48:04.358Z,1.50
2019-05-30T12:51:05.556Z,1.60
2019-05-30T12:53:54.338Z,1.57
2019-05-30T12:56:42.227Z,1.60
2019-05-30T12:59:30.185Z,1.50
2019-05-30T13:02:43.077Z,1.70
2019-05-30T13:05:41.674Z,1.80
2019-05-30T13:08:31.243Z,1.87
2019-05-30T13:11:22.800Z,1.80
2019-05-30T13:17:29.708Z,1.70
2019-05-30T13:20:20.672Z,1.50
2019-05-30T13:23:09.140Z,1.40
2019-05-30T13:25:59.582Z,1.50
2019-05-30T13:28:47.577Z,1.60
2019-05-30T13:31:35.870Z,1.50
2019-05-30T13:37:31.474Z,1.73
2019-05-30T13:40:25.463Z,1.53
2019-05-30T13:43:10.348Z,1.60
2019-05-30T13:46:02.909Z,1.50
2019-05-30T13:49:04.776Z,2.10
2019-05-30T13:51:53.285Z,1.73
2019-05-30T13:55:55.318Z,1.70
2019-05-30T13:58:01.761Z,1.60
2019-05-30T14:01:26.895Z,1.60
2019-05-30T14:04:20.737Z,1.60
2019-05-30T14:07:24.102Z,1.63
2019-05-30T14:10:13.333Z,1.70
2019-05-30T14:13:54.671Z,1.80
2019-05-30T14:16:34.048Z,1.83
2019-05-30T14:19:25.038Z,1.80
2019-05-30T14:22:30.984Z,1.50
2019-05-30T14:28:43.233Z,1.67
2019-05-30T14:31:34.720Z,1.70
2019-05-30T14:35:26.904Z,1.70
2019-05-30T14:37:29.653Z,1.80
2019-05-30T14:40:18.461Z,1.70
2019-05-30T14:43:07.287Z,1.70
2019-05-30T14:46:00.424Z,1.80
2019-05-30T14:51:55.731Z,1.70
2019-05-30T14:54:46.952Z,1.67
2019-05-30T14:57:47.074Z,1.90
2019-05-30T15:00:34.860Z,2.07
2019-05-30T15:03:33.321Z,1.83
2019-05-30T15:06:28.453Z,2.13
2019-05-30T15:09:25.914Z,2.10
2019-05-30T15:12:38.695Z,1.87
2019-05-30T15:15:28.240Z,1.90
2019-05-30T15:18:21.094Z,1.80
2019-05-30T15:21:10.326Z,1.80
2019-05-30T15:23:58.733Z,2.00
2019-05-30T15:26:57.341Z,2.10
2019-05-30T15:29:47.028Z,1.87
2019-05-30T15:32:39.450Z,1.83
2019-05-30T15:36:00.455Z,1.83
2019-05-30T15:38:50.305Z,1.70
2019-05-30T15:41:54.677Z,2.10
2019-05-30T15:44:42.732Z,2.90
2019-05-30T15:47:46.594Z,2.10
2019-05-30T15:50:34.615Z,2.57
2019-05-30T15:53:53.470Z,1.90
2019-05-30T15:59:35.609Z,2.23
2019-05-30T16:02:39.686Z,2.10
2019-05-30T16:05:22.077Z,2.30
2019-05-30T16:08:10.678Z,2.30
2019-05-30T16:11:01.731Z,2.00
2019-05-30T16:13:59.538Z,1.80
2019-05-30T16:16:47.680Z,1.80
2019-05-30T16:19:35.522Z,1.83
2019-05-30T16:22:41.818Z,1.90
2019-05-30T16:25:42.463Z,1.87
2019-05-30T16:28:32.064Z,2.00
2019-05-30T16:31:22.679Z,2.13
2019-05-30T16:34:18.073Z,2.20
2019-05-30T16:40:33.144Z,2.37
2019-05-30T16:43:45.828Z,2.40
2019-05-30T16:46:34.211Z,2.10
2019-05-30T16:49:22.857Z,2.30
2019-05-30T16:55:09.851Z,2.30
2019-05-30T16:57:57.624Z,2.17
2019-05-30T17:00:46.205Z,2.27
2019-05-30T17:03:56.590Z,2.30
2019-05-30T17:09:25.142Z,2.00
2019-05-30T17:15:24.016Z,2.57
2019-05-30T17:18:16.052Z,1.90
2019-05-30T17:21:21.582Z,1.90
2019-05-30T17:24:25.524Z,2.17
2019-05-30T17:27:32.506Z,2.30
2019-05-30T17:30:21.598Z,1.90
2019-05-30T17:33:09.449Z,2.10
2019-05-30T17:35:57.236Z,2.43
2019-05-30T17:38:45.124Z,2.50
2019-05-30T17:41:33.227Z,2.13
2019-05-30T17:44:21.631Z,2.70
2019-05-30T17:47:15.120Z,2.83
2019-05-30T17:50:03.497Z,2.63
2019-05-30T17:53:07.456Z,2.50
2019-05-30T17:55:51.119Z,2.20
2019-05-30T17:58:39.243Z,2.40
2019-05-30T18:01:28.205Z,2.50
2019-05-30T18:04:43.532Z,2.60
2019-05-30T18:07:38.945Z,2.40
2019-05-30T18:10:27.306Z,2.60
2019-05-30T18:14:21.558Z,2.40
2019-05-30T18:16:09.878Z,2.10
2019-05-30T18:19:01.223Z,2.50
2019-05-30T18:21:49.055Z,2.50
2019-05-30T18:25:02.552Z,2.47
2019-05-30T18:31:08.770Z,2.50
2019-05-30T18:33:56.891Z,2.63
2019-05-30T18:36:51.904Z,3.00
2019-05-30T18:39:41.206Z,2.50
2019-05-30T18:43:17.960Z,2.57
2019-05-30T18:46:38.555Z,2.80
2019-05-30T18:49:16.415Z,2.57
2019-05-30T18:52:04.832Z,2.50
2019-05-30T18:55:05.946Z,2.33
2019-05-30T18:58:11.489Z,2.50
2019-05-30T19:04:04.251Z,3.07
2019-05-30T19:06:54.162Z,3.40
2019-05-30T19:09:41.981Z,3.00
2019-05-30T19:15:34.235Z,6.07
2019-05-30T19:18:32.175Z,4.63
2019-05-30T19:21:17.972Z,4.50
2019-05-30T19:24:05.858Z,3.00
2019-05-30T19:26:59.690Z,2.47
2019-05-30T19:29:47.346Z,2.30
2019-05-30T19:33:11.888Z,2.50
2019-05-30T19:35:55.783Z,2.43
2019-05-30T19:38:43.956Z,2.60
2019-05-30T19:41:46.002Z,2.50
2019-05-30T19:44:22.141Z,2.27
2019-05-30T19:47:10.371Z,2.50
2019-05-30T19:50:01.146Z,2.60
2019-05-30T19:53:13.619Z,2.40
2019-05-30T19:56:02.714Z,6.80
2019-05-30T19:59:01.406Z,8.03
2019-05-30T20:01:49.402Z,3.07
2019-05-30T20:07:44.298Z,2.57
2019-05-30T20:10:32.774Z,2.50
2019-05-30T20:13:21.204Z,2.30
2019-05-30T20:16:12.144Z,2.60
2019-05-30T20:19:12.731Z,2.77
2019-05-30T20:22:01.254Z,2.37
2019-05-30T20:28:16.113Z,2.67
2019-05-30T20:31:00.220Z,2.67
2019-05-30T20:33:52.962Z,2.40
2019-05-30T20:39:42.942Z,2.27
2019-05-30T20:42:31.569Z,2.60
2019-05-30T20:45:22.425Z,2.50
2019-05-30T20:48:24.693Z,2.77
2019-05-30T20:51:23.050Z,2.77
2019-05-30T20:54:22.731Z,2.40
2019-05-30T20:57:25.127Z,2.63
2019-05-30T21:00:16.580Z,2.83
2019-05-30T21:03:16.769Z,2.90
2019-05-30T21:06:04.576Z,2.63
2019-05-30T21:09:03.135Z,2.80
2019-05-30T21:11:46.423Z,2.70
2019-05-30T21:15:18.013Z,2.60
2019-05-30T21:18:15.539Z,2.90
2019-05-30T21:21:25.554Z,2.70
2019-05-30T21:24:13.579Z,2.60
2019-05-30T21:27:04.400Z,2.83
2019-05-30T21:29:55.641Z,2.53
2019-05-30T21:36:07.965Z,2.73
2019-05-30T21:38:59.203Z,2.73
2019-05-30T21:41:48.458Z,2.93
2019-05-30T21:45:09.305Z,2.63
2019-05-30T21:48:24.106Z,3.00
2019-05-30T21:51:12.391Z,2.87
2019-05-30T21:54:19.092Z,2.77
2019-05-30T21:57:10.040Z,3.00
2019-05-30T22:00:02.402Z,2.90
2019-05-30T22:03:13.719Z,3.00
2019-05-30T22:06:19.155Z,3.00
2019-05-30T22:09:20.043Z,3.10
2019-05-30T22:12:05.939Z,3.47
2019-05-30T22:15:01.968Z,3.50
2019-05-30T22:17:54.694Z,4.07
2019-05-30T22:20:43.814Z,3.17
2019-05-30T22:23:55.352Z,3.00
2019-05-30T22:26:46.345Z,3.27
2019-05-30T22:29:34.938Z,3.30
2019-05-30T22:32:24.223Z,3.30
2019-05-30T22:35:32.348Z,3.03
2019-05-30T22:38:37.585Z,3.50
2019-05-30T22:41:25.695Z,3.10
2019-05-30T22:44:23.654Z,3.27
2019-05-30T22:47:13.207Z,3.27
2019-05-30T22:50:02.067Z,3.53
2019-05-30T22:53:54.623Z,3.60
2019-05-30T22:56:47.308Z,3.43
2019-05-30T22:59:36.777Z,3.70
2019-05-30T23:02:25.391Z,4.03
2019-05-30T23:05:38.151Z,3.77
2019-05-30T23:08:52.525Z,3.63
2019-05-30T23:11:40.396Z,3.70
2019-05-30T23:17:42.069Z,3.53
2019-05-30T23:20:31.067Z,3.50
2019-05-30T23:23:36.774Z,3.80
2019-05-30T23:26:25.634Z,4.53
2019-05-30T23:29:13.908Z,3.63
2019-05-30T23:32:02.826Z,3.77
2019-05-30T23:35:01.322Z,4.00
2019-05-30T23:37:50.555Z,3.70
2019-05-30T23:40:40.381Z,3.73
2019-05-30T23:44:05.514Z,5.80
2019-05-30T23:47:05.424Z,4.37
2019-05-30T23:49:53.802Z,4.00
2019-05-30T23:52:44.856Z,4.10
2019-05-30T23:55:36.364Z,3.90
2019-05-30T23:58:25.153Z,4.20
